Time;durP1;ratioP1;P1;durP2;ratioP2;P2;SDS_P1;SDS_P2;PMS_P1;PMS_P2;Temp;Humidity;BMP_temperature;BMP_pressure;BME280_temperature;BME280_humidity;BME280_pressure;Samples;Min_cycle;Max_cycle;Signal;HPM_P1;HPM_P2
2022/04/14 00:01:27;;;;;;;203.30;77.47;;;;;;;10.90;100.00;102000.59;5000140;28;20412;-50
2022/04/14 00:03:53;;;;;;;210.57;79.63;;;;;;;10.86;100.00;101999.16;4999537;28;20061;-47
2022/04/14 00:06:18;;;;;;;210.13;78.28;;;;;;;10.79;100.00;101997.03;4999716;28;20121;-48
2022/04/14 00:08:43;;;;;;;203.07;80.25;;;;;;;10.77;100.00;101992.78;4979609;28;20088;-47
2022/04/14 00:11:08;;;;;;;208.98;81.03;;;;;;;10.75;100.00;101992.91;4994587;28;20113;-49
2022/04/14 00:13:34;;;;;;;217.27;81.63;;;;;;;10.71;100.00;101988.84;4988228;28;20025;-47
2022/04/14 00:15:59;;;;;;;214.18;80.70;;;;;;;10.70;100.00;101984.47;4979652;28;20030;-48
2022/04/14 00:18:25;;;;;;;211.80;81.70;;;;;;;10.70;100.00;101986.28;4987306;28;20026;-47
2022/04/14 00:20:50;;;;;;;215.93;81.45;;;;;;;10.66;100.00;101982.19;4983598;28;20121;-48
2022/04/14 00:23:16;;;;;;;214.60;80.78;;;;;;;10.63;100.00;101978.81;4990819;28;20103;-50
2022/04/14 00:25:41;;;;;;;199.43;78.43;;;;;;;10.68;100.00;101977.56;4986524;28;20034;-49
2022/04/14 00:28:06;;;;;;;200.00;76.95;;;;;;;10.70;100.00;101978.28;4983949;28;20037;-49
2022/04/14 00:30:31;;;;;;;187.85;75.68;;;;;;;10.73;100.00;101975.34;4998154;28;20037;-49
2022/04/14 00:32:57;;;;;;;192.40;75.63;;;;;;;10.74;100.00;101977.00;4998389;28;20026;-49
2022/04/14 00:35:22;;;;;;;200.85;74.72;;;;;;;10.75;100.00;101976.06;4998682;28;20084;-46
2022/04/14 00:37:47;;;;;;;192.73;71.68;;;;;;;10.72;100.00;101977.16;4998425;28;20500;-52
2022/04/14 00:40:13;;;;;;;186.20;73.30;;;;;;;10.70;100.00;101975.59;4998335;28;20295;-49
2022/04/14 00:42:38;;;;;;;188.25;72.07;;;;;;;10.68;100.00;101975.75;4987258;28;20097;-51
2022/04/14 00:45:05;;;;;;;185.82;72.68;;;;;;;10.63;100.00;101970.78;4986651;28;20451;-48
2022/04/14 00:47:30;;;;;;;182.15;69.53;;;;;;;10.61;100.00;101967.41;4986804;28;20014;-50
2022/04/14 00:49:56;;;;;;;176.27;68.40;;;;;;;10.59;100.00;101976.53;4979235;28;20365;-48
2022/04/14 00:52:22;;;;;;;172.75;66.85;;;;;;;10.57;100.00;101973.16;4980512;28;20068;-48
2022/04/14 00:54:47;;;;;;;178.88;68.18;;;;;;;10.58;100.00;101978.34;4990545;28;20409;-48
2022/04/14 00:57:14;;;;;;;190.95;68.35;;;;;;;10.56;100.00;101968.81;4978103;28;20034;-49
2022/04/14 00:59:39;;;;;;;175.70;66.07;;;;;;;10.57;100.00;101966.00;4984232;28;20112;-51
2022/04/14 01:02:05;;;;;;;179.85;68.85;;;;;;;10.54;100.00;101973.41;5002439;28;20520;-48
2022/04/14 01:04:31;;;;;;;179.07;69.22;;;;;;;10.50;100.00;101972.81;5017064;28;20468;-51
2022/04/14 01:06:56;;;;;;;190.70;68.85;;;;;;;10.46;100.00;101971.41;5002677;28;20357;-50
2022/04/14 01:09:26;;;;;;;183.02;71.20;;;;;;;10.42;100.00;101968.16;5001677;28;20042;-50
2022/04/14 01:11:53;;;;;;;186.60;70.43;;;;;;;10.40;100.00;101978.13;4984704;28;20108;-48
2022/04/14 01:14:24;;;;;;;182.45;68.75;;;;;;;10.42;100.00;101964.63;4994122;28;20128;-50
2022/04/14 01:16:49;;;;;;;179.90;70.00;;;;;;;10.41;100.00;101963.78;4991973;28;20040;-47
2022/04/14 01:19:14;;;;;;;186.65;71.20;;;;;;;10.39;100.00;101967.59;4990280;28;20452;-48
2022/04/14 01:21:45;;;;;;;172.18;69.10;;;;;;;10.37;100.00;101975.72;4983764;28;20026;-48
2022/04/14 01:24:11;;;;;;;186.77;70.45;;;;;;;10.37;100.00;101965.03;4997638;28;20060;-49
2022/04/14 01:26:37;;;;;;;193.02;70.55;;;;;;;10.38;100.00;101968.56;5001754;28;20555;-48
2022/04/14 01:29:03;;;;;;;194.20;72.78;;;;;;;10.35;100.00;101968.81;5001140;28;20085;-50
2022/04/14 01:31:28;;;;;;;185.57;69.43;;;;;;;10.31;100.00;101965.53;4992355;28;20468;-51
2022/04/14 01:33:54;;;;;;;190.73;71.82;;;;;;;10.29;100.00;101964.81;5001389;28;20029;-50
2022/04/14 01:36:19;;;;;;;191.60;71.97;;;;;;;10.28;100.00;101965.78;5001879;28;20030;-52
2022/04/14 01:38:45;;;;;;;192.25;73.85;;;;;;;10.31;100.00;101970.88;5000937;28;20452;-50
2022/04/14 01:41:10;;;;;;;192.32;70.07;;;;;;;10.28;100.00;101968.47;5000382;28;20018;-47
2022/04/14 01:43:35;;;;;;;197.27;74.57;;;;;;;10.26;100.00;101973.09;4999524;28;20025;-47
2022/04/14 01:46:03;;;;;;;195.60;73.22;;;;;;;10.25;100.00;101968.72;4981658;28;20664;-49
2022/04/14 01:48:28;;;;;;;209.50;75.90;;;;;;;10.22;100.00;101972.50;4986087;28;20037;-49
2022/04/14 01:50:53;;;;;;;192.80;75.35;;;;;;;10.20;100.00;101968.25;4999807;28;20029;-50
2022/04/14 01:53:19;;;;;;;195.18;75.70;;;;;;;10.18;100.00;101964.88;4981803;28;20428;-51
2022/04/14 01:55:44;;;;;;;210.98;76.85;;;;;;;10.14;100.00;101974.97;4979912;28;20084;-50
2022/04/14 01:58:09;;;;;;;207.13;75.95;;;;;;;10.11;100.00;101979.75;4995792;28;20377;-48
2022/04/14 02:00:34;;;;;;;204.82;77.50;;;;;;;10.09;100.00;101975.38;5000510;28;20099;-49
2022/04/14 02:03:00;;;;;;;206.88;77.25;;;;;;;10.11;100.00;101977.06;4985183;28;20405;-49
2022/04/14 02:05:26;;;;;;;205.50;75.22;;;;;;;10.10;100.00;101981.56;4982148;28;20026;-48
2022/04/14 02:07:51;;;;;;;210.70;76.70;;;;;;;10.11;100.00;101979.75;4981201;28;20022;-50
2022/04/14 02:10:17;;;;;;;200.20;74.43;;;;;;;10.10;100.00;101981.56;4981339;28;20038;-50
2022/04/14 02:12:45;;;;;;;201.35;74.72;;;;;;;10.09;100.00;101986.03;4980597;28;20053;-48
2022/04/14 02:15:10;;;;;;;209.20;76.78;;;;;;;10.08;100.00;101981.69;4993212;28;20021;-50
2022/04/14 02:17:35;;;;;;;206.77;74.57;;;;;;;10.10;100.00;101984.25;5001236;28;20045;-51
2022/04/14 02:20:01;;;;;;;203.70;74.30;;;;;;;10.16;100.00;101989.03;5000252;28;20136;-43
2022/04/14 02:22:26;;;;;;;201.88;76.30;;;;;;;10.19;100.00;101985.28;4990012;28;20366;-45
2022/04/14 02:24:51;;;;;;;208.45;74.55;;;;;;;10.18;100.00;101989.78;4988877;28;20026;-43
2022/04/14 02:27:17;;;;;;;211.15;75.28;;;;;;;10.14;100.00;101984.81;4986792;28;20026;-42
2022/04/14 02:29:43;;;;;;;215.07;76.63;;;;;;;10.13;100.00;101986.63;4993126;28;20022;-43
2022/04/14 02:32:09;;;;;;;209.30;75.57;;;;;;;10.15;100.00;101989.16;4986390;28;20107;-45
2022/04/14 02:34:34;;;;;;;199.73;76.78;;;;;;;10.11;100.00;101995.75;4981953;28;20030;-44
2022/04/14 02:36:59;;;;;;;209.60;76.00;;;;;;;10.12;100.00;101989.44;5000617;28;20079;-46
2022/04/14 02:39:25;;;;;;;201.05;74.22;;;;;;;10.11;100.00;101985.91;5000683;28;20373;-42
2022/04/14 02:41:50;;;;;;;193.55;73.07;;;;;;;10.09;100.00;101994.06;4982046;28;20461;-44
2022/04/14 02:44:15;;;;;;;194.73;73.47;;;;;;;10.07;100.00;101998.69;4979901;28;20022;-44
2022/04/14 02:46:41;;;;;;;197.32;72.40;;;;;;;10.04;100.00;101993.59;4981064;28;20066;-43
2022/04/14 02:49:06;;;;;;;192.10;71.22;;;;;;;10.02;100.00;101992.03;4977890;28;20121;-42
2022/04/14 02:51:31;;;;;;;188.63;70.28;;;;;;;10.00;100.00;101991.34;4982300;28;20144;-44
2022/04/14 02:53:56;;;;;;;193.82;72.05;;;;;;;9.98;100.00;101993.25;4991667;28;20057;-43
2022/04/14 02:56:22;;;;;;;193.18;71.82;;;;;;;9.98;100.00;101994.13;4982926;28;20124;-43
2022/04/14 02:58:47;;;;;;;199.20;72.40;;;;;;;9.93;100.00;101992.81;4989666;28;20396;-42
2022/04/14 03:01:13;;;;;;;192.57;71.80;;;;;;;9.96;100.00;101993.41;4997764;28;20081;-43
2022/04/14 03:03:38;;;;;;;191.07;71.90;;;;;;;9.93;100.00;101988.31;4997713;28;20098;-44
2022/04/14 03:06:03;;;;;;;186.15;69.47;;;;;;;9.88;100.00;101982.53;4982662;28;20033;-42
2022/04/14 03:08:29;;;;;;;182.82;67.65;;;;;;;9.83;100.00;101980.25;4998407;28;20123;-43
2022/04/14 03:10:55;;;;;;;190.80;68.07;;;;;;;9.79;100.00;101992.16;4999039;28;20280;-42
2022/04/14 03:13:20;;;;;;;180.07;67.45;;;;;;;9.76;100.00;101988.88;4987738;28;20062;-44
2022/04/14 03:15:48;;;;;;;185.30;67.25;;;;;;;9.71;100.00;101987.44;4979322;28;20420;-45
2022/04/14 03:18:14;;;;;;;181.30;67.68;;;;;;;9.67;100.00;101986.03;4978916;28;20022;-46
2022/04/14 03:20:39;;;;;;;193.98;69.10;;;;;;;9.64;100.00;101988.06;4987626;28;20061;-43
2022/04/14 03:23:06;;;;;;;206.80;71.93;;;;;;;9.63;100.00;101981.06;4998887;28;20021;-44
2022/04/14 03:25:31;;;;;;;196.55;72.15;;;;;;;9.60;100.00;101987.47;4995789;28;20029;-43
2022/04/14 03:27:56;;;;;;;191.52;67.53;;;;;;;9.58;100.00;101988.59;4992308;28;20095;-44
2022/04/14 03:30:22;;;;;;;192.38;68.15;;;;;;;9.50;100.00;101986.53;4988364;28;20026;-44
2022/04/14 03:32:47;;;;;;;187.20;67.72;;;;;;;9.46;100.00;101991.28;4998917;28;20760;-43
2022/04/14 03:35:14;;;;;;;176.35;66.22;;;;;;;9.42;100.00;101986.31;4999749;28;20141;-47
2022/04/14 03:37:40;;;;;;;168.50;64.32;;;;;;;9.38;100.00;101985.72;4987300;28;20417;-46
2022/04/14 03:40:07;;;;;;;178.93;66.18;;;;;;;9.35;100.00;101993.97;4998992;28;20147;-45
2022/04/14 03:42:33;;;;;;;174.00;66.15;;;;;;;9.26;100.00;102000.06;4984517;28;20050;-43
2022/04/14 03:44:59;;;;;;;134.27;51.78;;;;;;;9.17;100.00;101995.47;4979644;28;20401;-44
2022/04/14 03:47:25;;;;;;;139.77;54.55;;;;;;;9.11;100.00;101995.00;4980471;28;20044;-43
2022/04/14 03:49:51;;;;;;;147.27;55.47;;;;;;;9.07;100.00;101998.03;4997424;28;20029;-46
2022/04/14 03:52:16;;;;;;;163.25;59.78;;;;;;;9.06;100.00;101997.19;4988180;28;20447;-43
2022/04/14 03:54:41;;;;;;;154.07;58.58;;;;;;;9.05;100.00;101998.16;4980114;28;20058;-44
2022/04/14 03:57:07;;;;;;;180.35;65.97;;;;;;;9.06;100.00;101994.53;4978828;28;20026;-47
2022/04/14 03:59:33;;;;;;;181.07;64.72;;;;;;;9.04;100.00;101991.13;4979419;28;20022;-44
2022/04/14 04:01:58;;;;;;;191.65;59.58;;;;;;;8.99;100.00;101993.31;4984205;28;20092;-44
2022/04/14 04:04:23;;;;;;;198.65;57.72;;;;;;;8.96;100.00;101990.88;4978562;28;20053;-44
2022/04/14 04:06:49;;;;;;;171.57;63.35;;;;;;;8.90;100.00;101992.22;4996335;28;20045;-43
2022/04/14 04:09:14;;;;;;;144.23;55.80;;;;;;;8.86;100.00;101997.91;4998333;28;20030;-46
2022/04/14 04:11:39;;;;;;;152.48;56.05;;;;;;;8.80;100.00;101996.59;4988908;28;20214;-44
2022/04/14 04:14:04;;;;;;;228.07;51.58;;;;;;;8.76;100.00;102000.47;4980190;28;20473;-45
2022/04/14 04:16:30;;;;;;;210.57;49.42;;;;;;;8.72;100.00;101999.88;4988231;28;20109;-44
2022/04/14 04:18:55;;;;;;;289.35;49.13;;;;;;;8.63;100.00;102002.41;4997606;28;20072;-43
2022/04/14 04:21:20;;;;;;;144.02;49.83;;;;;;;8.62;100.00;102003.34;4992644;28;20026;-44
2022/04/14 04:23:46;;;;;;;154.88;51.63;;;;;;;8.53;100.00;102005.75;4978883;28;20031;-50
2022/04/14 04:26:11;;;;;;;140.02;49.70;;;;;;;8.47;100.00;102008.03;4978742;28;20124;-47
2022/04/14 04:28:36;;;;;;;126.72;50.05;;;;;;;8.45;100.00;102013.47;4979929;28;20062;-50
2022/04/14 04:31:01;;;;;;;121.95;46.40;;;;;;;8.40;100.00;102005.84;4980509;28;20057;-52
2022/04/14 04:33:27;;;;;;;107.18;45.30;;;;;;;8.38;100.00;102014.91;4980019;28;20460;-47
2022/04/14 04:35:52;;;;;;;109.65;47.38;;;;;;;8.33;100.00;102020.59;4987014;28;20444;-47
2022/04/14 04:38:19;;;;;;;108.45;46.30;;;;;;;8.32;100.00;102023.38;4988192;28;20026;-46
2022/04/14 04:40:44;;;;;;;111.43;47.30;;;;;;;8.30;100.00;102025.28;4979247;28;20102;-46
2022/04/14 04:43:09;;;;;;;112.15;45.97;;;;;;;8.28;100.00;102022.75;4994387;28;20108;-46
2022/04/14 04:45:35;;;;;;;104.00;46.47;;;;;;;8.25;100.00;102020.34;4998870;28;20034;-47
2022/04/14 04:48:02;;;;;;;147.48;46.28;;;;;;;8.18;100.00;102021.75;4983152;28;20040;-47
2022/04/14 04:50:27;;;;;;;137.50;48.17;;;;;;;8.13;100.00;102018.59;4995787;28;20056;-49
2022/04/14 04:52:53;;;;;;;113.18;45.50;;;;;;;8.13;100.00;102024.78;4995493;28;20111;-48
2022/04/14 04:55:18;;;;;;;202.05;49.75;;;;;;;8.14;100.00;102023.78;4994316;28;20029;-50
2022/04/14 04:57:43;;;;;;;277.63;49.47;;;;;;;8.14;100.00;102036.25;4987912;28;20021;-49
2022/04/14 05:00:10;;;;;;;204.95;47.95;;;;;;;8.17;100.00;102036.03;4996318;28;20053;-47
2022/04/14 05:02:36;;;;;;;372.98;47.60;;;;;;;8.18;100.00;102029.72;4983705;28;20033;-48
2022/04/14 05:05:01;;;;;;;416.13;47.65;;;;;;;8.20;100.00;102030.47;4997493;28;20714;-49
2022/04/14 05:07:26;;;;;;;296.45;49.40;;;;;;;8.14;100.00;102033.59;4993470;28;20033;-48
2022/04/14 05:09:52;;;;;;;187.10;50.30;;;;;;;8.12;100.00;102043.50;4998517;28;20033;-48
2022/04/14 05:12:17;;;;;;;116.47;48.83;;;;;;;8.13;100.00;102039.88;4994969;28;20477;-47
2022/04/14 05:14:42;;;;;;;146.38;50.63;;;;;;;8.10;100.00;102045.44;4987668;28;20030;-49
2022/04/14 05:17:08;;;;;;;208.60;51.75;;;;;;;8.02;100.00;102036.19;4996057;28;20029;-48
2022/04/14 05:19:33;;;;;;;313.65;53.50;;;;;;;7.96;100.00;102041.13;4995067;28;20417;-47
2022/04/14 05:22:01;;;;;;;303.42;52.92;;;;;;;7.87;100.00;102037.34;4988126;28;20022;-47
2022/04/14 05:24:26;;;;;;;254.52;51.58;;;;;;;7.93;100.00;102049.38;5009477;28;20064;-51
2022/04/14 05:26:52;;;;;;;271.50;53.55;;;;;;;7.91;100.00;102056.59;4990177;28;20037;-49
2022/04/14 05:29:17;;;;;;;312.35;57.50;;;;;;;7.89;100.00;102051.41;4997307;28;20104;-48
2022/04/14 05:31:43;;;;;;;369.77;61.80;;;;;;;7.85;100.00;102053.41;4997215;28;21287;-48
2022/04/14 05:34:08;;;;;;;339.30;64.22;;;;;;;7.81;100.00;102053.78;4996234;28;20037;-48
2022/04/14 05:36:33;;;;;;;381.55;64.15;;;;;;;7.79;100.00;102051.22;4999838;28;20065;-48
2022/04/14 05:38:59;;;;;;;306.00;62.90;;;;;;;7.82;100.00;102060.78;4995998;28;20096;-48
2022/04/14 05:41:25;;;;;;;272.67;60.50;;;;;;;7.90;100.00;102070.88;4997167;28;20026;-51
2022/04/14 05:43:50;;;;;;;250.00;65.50;;;;;;;7.93;100.00;102071.50;4979563;28;20448;-48
2022/04/14 05:46:15;;;;;;;249.32;66.63;;;;;;;7.97;100.00;102067.63;4980576;28;20050;-43
2022/04/14 05:48:40;;;;;;;228.35;65.05;;;;;;;8.01;100.00;102077.09;4989239;28;20030;-44
2022/04/14 05:51:06;;;;;;;191.98;67.88;;;;;;;8.04;100.00;102078.66;5000728;28;20778;-43
2022/04/14 05:53:31;;;;;;;169.40;66.63;;;;;;;8.06;100.00;102074.06;5000248;28;20045;-43
2022/04/14 05:55:56;;;;;;;165.77;63.42;;;;;;;8.11;100.00;102077.25;5000943;28;20034;-43
2022/04/14 05:58:21;;;;;;;165.95;66.47;;;;;;;8.16;100.00;102085.75;5000656;28;20061;-43
2022/04/14 06:00:47;;;;;;;164.00;63.80;;;;;;;8.24;100.00;102077.19;4999740;28;20126;-43
2022/04/14 06:03:12;;;;;;;175.02;68.20;;;;;;;8.28;100.00;102083.09;4999912;28;20022;-42
2022/04/14 06:05:37;;;;;;;160.88;64.57;;;;;;;8.33;100.00;102088.94;5001779;28;20113;-44
2022/04/14 06:08:03;;;;;;;155.60;61.53;;;;;;;8.40;100.00;102083.03;5000877;28;20022;-43
2022/04/14 06:10:29;;;;;;;155.20;62.20;;;;;;;8.47;100.00;102083.47;4986348;28;20062;-42
2022/04/14 06:12:55;;;;;;;155.07;62.05;;;;;;;8.57;100.00;102075.59;4998820;28;20492;-46
2022/04/14 06:15:20;;;;;;;156.80;62.70;;;;;;;8.63;100.00;102079.63;4996640;28;20036;-43
2022/04/14 06:17:46;;;;;;;150.00;62.35;;;;;;;8.68;100.00;102080.97;4998868;28;20415;-43
2022/04/14 06:20:12;;;;;;;146.50;62.05;;;;;;;8.70;100.00;102080.84;5000789;28;21174;-43
2022/04/14 06:22:41;;;;;;;152.75;61.30;;;;;;;8.80;100.00;102091.63;4988666;28;20394;-45
2022/04/14 06:25:12;;;;;;;134.05;58.97;;;;;;;8.85;100.00;102082.31;4993142;28;20030;-43
2022/04/14 06:27:42;;;;;;;143.63;60.90;;;;;;;8.96;100.00;102087.66;4998646;28;20014;-44
2022/04/14 06:30:09;;;;;;;144.00;61.30;;;;;;;9.02;100.00;102082.81;4998436;28;20041;-43
2022/04/14 06:32:34;;;;;;;151.20;62.40;;;;;;;9.10;100.00;102077.75;4999322;28;20018;-44
2022/04/14 06:34:59;;;;;;;152.70;62.03;;;;;;;9.24;100.00;102092.63;5000454;28;20014;-42
2022/04/14 06:37:25;;;;;;;147.88;62.58;;;;;;;9.34;100.00;102088.28;4998737;28;20053;-42
2022/04/14 06:39:50;;;;;;;148.20;61.28;;;;;;;9.45;100.00;102090.06;4999716;28;20042;-42
2022/04/14 06:42:15;;;;;;;151.82;63.63;;;;;;;9.61;100.00;102092.38;4997974;28;20377;-42
2022/04/14 06:44:40;;;;;;;150.20;63.65;;;;;;;9.69;100.00;102090.78;4992674;28;20030;-43
2022/04/14 06:47:06;;;;;;;140.50;62.05;;;;;;;9.82;100.00;102095.94;4995750;28;20045;-44
2022/04/14 06:49:31;;;;;;;143.32;61.05;;;;;;;9.95;100.00;102085.13;4979451;28;20586;-47
2022/04/14 06:51:57;;;;;;;132.90;58.10;;;;;;;10.06;100.00;102084.22;4990679;28;20028;-44
2022/04/14 06:54:22;;;;;;;136.88;57.03;;;;;;;10.17;100.00;102078.00;4965326;28;20509;-44
2022/04/14 06:56:47;;;;;;;123.85;53.67;;;;;;;10.29;100.00;102082.31;4997317;28;20337;-46
2022/04/14 06:59:12;;;;;;;116.85;52.47;;;;;;;10.44;100.00;102091.72;4994661;28;20032;-44
2022/04/14 07:01:38;;;;;;;123.15;53.38;;;;;;;10.57;100.00;102093.34;4978517;28;20084;-44
2022/04/14 07:04:03;;;;;;;122.15;53.47;;;;;;;10.70;100.00;102093.16;4979021;28;20342;-45
2022/04/14 07:06:28;;;;;;;114.65;50.63;;;;;;;10.85;100.00;102099.88;4980227;28;20145;-44
2022/04/14 07:08:54;;;;;;;114.82;51.28;;;;;;;10.99;100.00;102090.66;4979923;28;20030;-44
2022/04/14 07:11:19;;;;;;;112.75;49.22;;;;;;;11.15;100.00;102087.47;4987829;28;20097;-45
2022/04/14 07:13:44;;;;;;;104.70;49.28;;;;;;;11.31;100.00;102103.03;4999169;28;20223;-44
2022/04/14 07:16:09;;;;;;;100.93;45.50;;;;;;;11.42;100.00;102102.09;4997154;28;20398;-42
2022/04/14 07:18:35;;;;;;;96.30;41.35;;;;;;;11.51;100.00;102099.44;4988468;28;20026;-43
2022/04/14 07:21:00;;;;;;;83.55;42.15;;;;;;;11.62;100.00;102103.81;4995641;28;20131;-42
2022/04/14 07:23:25;;;;;;;90.68;41.17;;;;;;;11.75;100.00;102104.44;4979073;28;20042;-44
2022/04/14 07:25:51;;;;;;;76.35;38.88;;;;;;;11.88;100.00;102106.00;4986089;28;20156;-43
2022/04/14 07:28:16;;;;;;;84.95;38.35;;;;;;;11.99;100.00;102111.25;4989077;28;20132;-48
2022/04/14 07:30:42;;;;;;;77.13;38.13;;;;;;;12.09;100.00;102112.13;4990781;28;20026;-51
2022/04/14 07:33:07;;;;;;;77.40;36.53;;;;;;;12.19;100.00;102111.28;4978378;28;20049;-47
2022/04/14 07:35:33;;;;;;;73.63;35.17;;;;;;;12.25;100.00;102116.94;4988789;28;20116;-47
2022/04/14 07:37:59;;;;;;;76.05;34.85;;;;;;;12.37;100.00;102119.44;4997620;28;20109;-48
2022/04/14 07:40:25;;;;;;;73.68;35.28;;;;;;;12.48;100.00;102119.31;4996871;28;20125;-47
2022/04/14 07:42:50;;;;;;;69.18;34.20;;;;;;;12.62;100.00;102115.34;4998861;28;20111;-51
2022/04/14 07:45:16;;;;;;;70.97;33.58;;;;;;;12.75;100.00;102123.09;4998432;28;20025;-50
2022/04/14 07:47:44;;;;;;;69.97;32.72;;;;;;;12.88;100.00;102124.47;4992965;28;20104;-49
2022/04/14 07:50:10;;;;;;;67.32;32.45;;;;;;;12.99;100.00;102126.13;4997354;28;20029;-49
2022/04/14 07:52:55;;;;;;;61.15;29.73;;;;;;;13.05;100.00;102120.19;4998933;28;20092;-49
2022/04/14 07:55:31;;;;;;;61.40;28.30;;;;;;;13.14;100.00;102125.66;4997570;28;20369;-49
2022/04/14 07:58:00;;;;;;;60.42;28.27;;;;;;;13.21;100.00;102124.09;4993233;28;20033;-51
2022/04/14 08:00:26;;;;;;;54.20;29.00;;;;;;;13.31;100.00;102124.88;4996192;28;20057;-49
2022/04/14 08:02:59;;;;;;;54.42;27.15;;;;;;;13.43;100.00;102122.91;4998571;28;20026;-49
2022/04/14 08:05:37;;;;;;;54.00;26.88;;;;;;;13.54;100.00;102122.72;4986079;28;20117;-50
2022/04/14 08:08:04;;;;;;;48.22;26.77;;;;;;;13.58;100.00;102125.94;4979003;28;20034;-51
2022/04/14 08:10:31;;;;;;;56.83;27.00;;;;;;;13.69;100.00;102122.19;4979799;28;20022;-48
2022/04/14 08:12:56;;;;;;;50.78;26.23;;;;;;;13.86;100.00;102128.59;4980059;28;20065;-51
2022/04/14 08:15:21;;;;;;;48.90;24.50;;;;;;;13.97;100.00;102120.31;4987217;28;20053;-49
2022/04/14 08:17:47;;;;;;;43.20;24.35;;;;;;;14.06;100.00;102124.78;4992774;28;20487;-47
2022/04/14 08:20:14;;;;;;;41.55;22.08;;;;;;;14.10;100.00;102125.31;4989680;28;20045;-48
2022/04/14 08:22:51;;;;;;;43.08;22.67;;;;;;;14.16;100.00;102125.53;4979053;28;20539;-48
2022/04/14 08:25:21;;;;;;;41.50;22.50;;;;;;;14.23;100.00;102131.16;4979176;28;20034;-47
2022/04/14 08:27:47;;;;;;;38.50;19.55;;;;;;;14.33;100.00;102123.84;4982834;28;20107;-47
2022/04/14 08:30:14;;;;;;;42.58;21.13;;;;;;;14.40;100.00;102123.25;4992237;28;20481;-50
2022/04/14 08:32:40;;;;;;;43.05;22.20;;;;;;;14.55;100.00;102133.28;4996877;28;20544;-50
2022/04/14 08:35:05;;;;;;;39.70;21.13;;;;;;;14.71;100.00;102126.38;4998054;28;20108;-48
2022/04/14 08:37:31;;;;;;;39.05;20.48;;;;;;;14.82;100.00;102123.44;4998153;28;20109;-50
2022/04/14 08:39:59;;;;;;;40.47;20.50;;;;;;;14.83;100.00;102124.25;4980069;28;20217;-47
2022/04/14 08:42:29;;;;;;;36.25;20.50;;;;;;;14.88;100.00;102121.94;4978677;28;20633;-48
2022/04/14 08:45:01;;;;;;;35.88;19.23;;;;;;;14.99;100.00;102120.84;4987391;28;20061;-50
2022/04/14 08:47:29;;;;;;;34.38;18.17;;;;;;;15.02;100.00;102131.28;4998297;28;20113;-50
2022/04/14 08:49:59;;;;;;;37.63;20.50;;;;;;;15.10;100.00;102125.94;4998144;28;20053;-49
2022/04/14 08:52:26;;;;;;;36.05;19.30;;;;;;;15.14;100.00;102118.38;4993710;28;20045;-47
2022/04/14 08:54:54;;;;;;;36.65;17.88;;;;;;;15.20;100.00;102126.66;4979612;28;20104;-50
2022/04/14 08:57:21;;;;;;;31.77;16.98;;;;;;;15.33;100.00;102128.09;4991520;28;20026;-47
2022/04/14 08:59:49;;;;;;;30.50;17.40;;;;;;;15.44;100.00;102127.78;4998619;28;20057;-50
2022/04/14 09:02:18;;;;;;;38.53;17.52;;;;;;;15.52;100.00;102132.38;4981788;28;20021;-48
2022/04/14 09:04:44;;;;;;;33.58;15.95;;;;;;;15.63;100.00;102124.84;4991267;28;20046;-51
2022/04/14 09:07:11;;;;;;;32.00;13.30;;;;;;;15.67;97.00;102123.50;4992669;28;20764;-50
2022/04/14 09:09:37;;;;;;;19.33;11.57;;;;;;;15.78;97.16;102125.09;4983774;28;20030;-48
2022/04/14 09:12:03;;;;;;;27.63;13.23;;;;;;;15.83;95.84;102124.59;4978800;28;20030;-48
2022/04/14 09:14:31;;;;;;;21.67;11.88;;;;;;;15.87;93.28;102128.66;4978227;28;20528;-50
2022/04/14 09:16:56;;;;;;;22.35;11.43;;;;;;;15.99;94.97;102115.72;4980132;28;20030;-51
2022/04/14 09:19:25;;;;;;;23.90;11.98;;;;;;;16.16;94.65;102120.13;4980315;28;20117;-51
2022/04/14 09:22:07;;;;;;;24.65;11.57;;;;;;;16.26;92.25;102121.78;4983825;28;20087;-49
2022/04/14 09:24:45;;;;;;;22.67;10.38;;;;;;;16.38;92.34;102112.38;4983364;28;20424;-48
2022/04/14 09:27:29;;;;;;;26.30;10.38;;;;;;;16.53;92.99;102116.09;4983564;28;20042;-51
2022/04/14 09:30:00;;;;;;;20.13;9.07;;;;;;;16.46;86.01;102112.34;4982412;28;20053;-47
2022/04/14 09:32:30;;;;;;;22.52;9.55;;;;;;;16.56;88.71;102102.28;4999834;28;20030;-51
2022/04/14 09:34:55;;;;;;;19.88;8.63;;;;;;;16.70;87.67;102102.56;4999529;28;20034;-48
2022/04/14 09:37:23;;;;;;;21.88;9.20;;;;;;;16.75;85.41;102102.88;4999569;28;20041;-45
2022/04/14 09:40:08;;;;;;;21.33;9.25;;;;;;;16.75;87.95;102092.97;4983349;28;20040;-47
2022/04/14 09:42:37;;;;;;;18.15;5.85;;;;;;;16.77;82.58;102099.03;4983115;28;20027;-44
2022/04/14 09:45:20;;;;;;;10.73;5.82;;;;;;;16.88;84.27;102094.31;4985119;28;20125;-43
2022/04/14 09:47:47;;;;;;;19.38;8.15;;;;;;;16.98;83.00;102092.25;4999203;28;20157;-43
2022/04/14 09:50:39;;;;;;;15.77;7.65;;;;;;;17.08;84.24;102090.22;4981980;28;20117;-45
2022/04/14 09:53:09;;;;;;;20.20;8.40;;;;;;;17.14;81.43;102088.66;4999656;28;20026;-46
2022/04/14 09:55:40;;;;;;;18.73;7.65;;;;;;;17.34;87.41;102081.84;5002643;28;20033;-45
2022/04/14 09:58:12;;;;;;;18.67;7.10;;;;;;;17.42;79.32;102085.53;5002021;28;20080;-45
2022/04/14 10:00:45;;;;;;;17.42;6.43;;;;;;;17.51;77.93;102081.75;4983033;28;20057;-45
2022/04/14 10:03:17;;;;;;;17.77;7.05;;;;;;;17.60;76.89;102088.81;4997085;28;20029;-44
2022/04/14 10:05:45;;;;;;;18.05;6.03;;;;;;;17.79;78.58;102083.97;4994297;28;20532;-43
2022/04/14 10:08:13;;;;;;;21.88;8.48;;;;;;;17.96;78.46;102093.69;4994401;28;20033;-44
2022/04/14 10:10:40;;;;;;;21.45;7.93;;;;;;;18.06;76.96;102094.28;4986286;28;20540;-43
2022/04/14 10:13:16;;;;;;;13.57;6.15;;;;;;;18.15;76.38;102096.94;4982881;28;20362;-43
2022/04/14 10:15:46;;;;;;;17.02;6.63;;;;;;;18.34;78.06;102104.53;4990496;28;20039;-43
2022/04/14 10:18:14;;;;;;;18.20;6.97;;;;;;;18.49;74.89;102114.56;4980265;28;20073;-44
2022/04/14 10:20:41;;;;;;;12.00;4.07;;;;;;;18.42;66.98;102114.47;4996440;28;20048;-45
2022/04/14 10:23:08;;;;;;;8.13;3.67;;;;;;;18.38;67.18;102110.41;5001484;28;20168;-46
2022/04/14 10:25:37;;;;;;;14.18;4.93;;;;;;;18.38;68.65;102121.25;5002227;28;20500;-46
2022/04/14 10:28:06;;;;;;;9.95;3.08;;;;;;;18.39;65.25;102110.25;4985648;28;20037;-43
2022/04/14 10:30:31;;;;;;;13.48;4.25;;;;;;;18.44;67.59;102102.44;4981734;28;20038;-44
2022/04/14 10:32:57;;;;;;;12.85;4.63;;;;;;;18.75;68.11;102114.97;4981256;28;20625;-45
2022/04/14 10:35:26;;;;;;;12.60;4.60;;;;;;;18.95;67.26;102119.91;4982466;28;20042;-43
2022/04/14 10:38:26;;;;;;;11.25;3.85;;;;;;;19.01;66.08;102128.13;4988874;28;20025;-44
2022/04/14 10:41:04;;;;;;;13.23;4.30;;;;;;;19.05;64.70;102122.34;4992592;28;20034;-43
2022/04/14 10:43:32;;;;;;;13.77;4.72;;;;;;;19.08;61.95;102119.28;4980435;28;20080;-43
2022/04/14 10:45:59;;;;;;;13.18;4.95;;;;;;;19.24;63.81;102120.94;4987667;28;20037;-44
2022/04/14 10:48:40;;;;;;;12.77;5.13;;;;;;;19.40;65.67;102112.63;4994604;28;20037;-43
2022/04/14 10:51:27;;;;;;;17.58;5.32;;;;;;;19.49;61.69;102113.34;4998717;28;20133;-44
2022/04/14 10:54:00;;;;;;;12.88;5.75;;;;;;;19.66;64.12;102112.09;5000638;28;20029;-43
2022/04/14 10:56:39;;;;;;;14.15;5.72;;;;;;;20.01;61.32;102106.03;5001058;28;20029;-42
2022/04/14 10:59:05;;;;;;;20.20;6.03;;;;;;;20.26;58.37;102111.91;4983676;28;20038;-43
2022/04/14 11:01:52;;;;;;;17.77;5.63;;;;;;;20.52;62.58;102116.75;4982059;28;20050;-44